Time;durP1;ratioP1;P1;durP2;ratioP2;P2;SDS_P1;SDS_P2;PMS_P1;PMS_P2;Temp;Humidity;BMP_temperature;BMP_pressure;BME280_temperature;BME280_humidity;BME280_pressure;Samples;Min_cycle;Max_cycle;Signal;HPM_P1;HPM_P2
2023/10/19 00:00:50;;;;;;;12.20;5.95;;;;;;;;;;5035735;28;20047;-80
2023/10/19 00:03:19;;;;;;;11.57;6.32;;;;;;;;;;5034295;28;20138;-80
2023/10/19 00:05:46;;;;;;;9.35;6.22;;;;;;;;;;5030592;28;20046;-80
2023/10/19 00:10:39;;;;;;;9.18;5.80;;;;;;;;;;5019770;28;20495;-80
2023/10/19 00:13:06;;;;;;;9.23;6.30;;;;;;;;;;5030218;28;20041;-81
2023/10/19 00:15:46;;;;;;;10.63;6.28;;;;;;;;;;5034664;28;20037;-80
2023/10/19 00:23:25;;;;;;;;;;;;;;;;;;5035686;28;20553;-81
2023/10/19 00:25:51;;;;;;;8.02;5.60;;;;;;;;;;5032080;28;19957;-80
2023/10/19 00:28:18;;;;;;;7.82;4.60;;;;;;;;;;5026600;28;20415;-81
2023/10/19 00:30:45;;;;;;;5.28;3.83;;;;;;;;;;5033246;28;20045;-80
2023/10/19 00:33:19;;;;;;;5.70;3.30;;;;;;;;;;5023309;28;20030;-80
2023/10/19 00:36:07;;;;;;;4.28;2.35;;;;;;;;;;5038489;28;20033;-81
2023/10/19 00:41:06;;;;;;;4.22;2.00;;;;;;;;;;5033378;28;20040;-79
2023/10/19 00:43:37;;;;;;;1.77;1.40;;;;;;;;;;5024078;28;20043;-79
2023/10/19 00:46:22;;;;;;;2.13;1.30;;;;;;;;;;5035394;28;20033;-79
2023/10/19 00:48:54;;;;;;;2.20;1.40;;;;;;;;;;5025458;28;20091;-80
2023/10/19 00:53:57;;;;;;;2.00;1.40;;;;;;;;;;5029871;28;20108;-80
2023/10/19 00:56:24;;;;;;;2.33;1.55;;;;;;;;;;5035495;28;20040;-81
2023/10/19 01:01:40;;;;;;;2.20;1.50;;;;;;;;;;5030540;28;20048;-80
2023/10/19 01:04:06;;;;;;;3.53;1.40;;;;;;;;;;5035820;28;20116;-80
2023/10/19 01:06:33;;;;;;;2.17;1.42;;;;;;;;;;5018244;28;20530;-80
2023/10/19 01:08:58;;;;;;;2.00;1.60;;;;;;;;;;5028286;28;20379;-80
2023/10/19 01:11:28;;;;;;;2.30;1.40;;;;;;;;;;5031928;28;20265;-80
2023/10/19 01:13:54;;;;;;;1.88;1.30;;;;;;;;;;5032759;28;20052;-80
2023/10/19 01:16:22;;;;;;;3.20;1.50;;;;;;;;;;5032094;28;20041;-79
2023/10/19 01:18:54;;;;;;;3.20;1.50;;;;;;;;;;5032436;28;20674;-80
2023/10/19 01:21:23;;;;;;;1.83;1.20;;;;;;;;;;5038537;28;20060;-80
2023/10/19 01:23:49;;;;;;;2.35;1.30;;;;;;;;;;5031697;28;20037;-80
2023/10/19 01:26:18;;;;;;;2.03;1.42;;;;;;;;;;5008905;28;20510;-81
2023/10/19 01:28:58;;;;;;;2.53;1.30;;;;;;;;;;5016785;28;20037;-82
2023/10/19 01:34:00;;;;;;;2.40;1.40;;;;;;;;;;5018239;28;20457;-81
2023/10/19 01:36:27;;;;;;;2.35;1.30;;;;;;;;;;5034966;28;20033;-79
2023/10/19 01:38:54;;;;;;;2.30;1.55;;;;;;;;;;5036990;28;20036;-80
2023/10/19 01:41:20;;;;;;;2.95;1.50;;;;;;;;;;5024978;28;20038;-80
2023/10/19 01:43:48;;;;;;;2.53;1.30;;;;;;;;;;5021510;28;20025;-80
2023/10/19 01:46:29;;;;;;;2.63;1.50;;;;;;;;;;5022794;28;20476;-80
2023/10/19 01:48:57;;;;;;;1.77;1.30;;;;;;;;;;5020253;28;20048;-79
2023/10/19 01:51:26;;;;;;;1.80;1.20;;;;;;;;;;5024293;28;20041;-81
2023/10/19 01:53:52;;;;;;;2.42;1.40;;;;;;;;;;5031923;28;20033;-80
2023/10/19 01:56:18;;;;;;;1.90;1.30;;;;;;;;;;5019823;28;20163;-81
2023/10/19 01:58:46;;;;;;;2.15;1.30;;;;;;;;;;5030780;28;20101;-81
2023/10/19 02:03:43;;;;;;;2.25;1.40;;;;;;;;;;5025885;28;20061;-80
2023/10/19 02:06:22;;;;;;;2.35;1.40;;;;;;;;;;5032736;28;20030;-80
2023/10/19 02:08:51;;;;;;;2.50;1.45;;;;;;;;;;5031863;28;20518;-80
2023/10/19 02:11:21;;;;;;;2.72;1.40;;;;;;;;;;5027918;28;20483;-80
2023/10/19 02:13:49;;;;;;;3.13;1.20;;;;;;;;;;5038422;28;20042;-81
2023/10/19 02:16:29;;;;;;;2.10;1.50;;;;;;;;;;5017331;28;20021;-81
2023/10/19 02:18:55;;;;;;;2.53;1.30;;;;;;;;;;5033122;28;20176;-81
2023/10/19 02:21:27;;;;;;;2.80;1.30;;;;;;;;;;5031696;28;20028;-80
2023/10/19 02:23:52;;;;;;;1.98;1.42;;;;;;;;;;5022511;28;20033;-81
2023/10/19 02:26:19;;;;;;;2.88;1.35;;;;;;;;;;5019407;28;20053;-80
2023/10/19 02:28:52;;;;;;;3.53;1.30;;;;;;;;;;5026200;28;20037;-80
2023/10/19 02:31:21;;;;;;;2.45;1.05;;;;;;;;;;5028808;28;20048;-82
2023/10/19 02:33:58;;;;;;;3.53;1.30;;;;;;;;;;5032093;28;20041;-81
2023/10/19 02:36:29;;;;;;;2.63;1.30;;;;;;;;;;5019708;28;20101;-81
2023/10/19 02:38:58;;;;;;;2.15;1.40;;;;;;;;;;5040558;28;20068;-80
2023/10/19 02:41:27;;;;;;;2.85;1.45;;;;;;;;;;5036610;28;20034;-80
2023/10/19 02:44:08;;;;;;;2.72;1.40;;;;;;;;;;5024661;28;20110;-79
2023/10/19 02:46:34;;;;;;;1.75;1.30;;;;;;;;;;5026752;28;20381;-81
2023/10/19 02:49:03;;;;;;;4.00;1.40;;;;;;;;;;5003922;28;20033;-80
2023/10/19 02:51:30;;;;;;;1.70;1.10;;;;;;;;;;5032120;28;20040;-80
2023/10/19 02:53:57;;;;;;;1.98;1.13;;;;;;;;;;5025362;28;20044;-80
2023/10/19 02:56:23;;;;;;;2.97;1.10;;;;;;;;;;5021564;28;20488;-80
2023/10/19 02:58:49;;;;;;;1.67;1.20;;;;;;;;;;5017074;28;20053;-80
2023/10/19 03:01:21;;;;;;;3.17;1.30;;;;;;;;;;5032791;28;20483;-81
2023/10/19 03:03:49;;;;;;;4.05;2.80;;;;;;;;;;5032036;28;20758;-80
2023/10/19 03:06:19;;;;;;;5.57;3.92;;;;;;;;;;5029897;28;20037;-81
2023/10/19 03:08:46;;;;;;;10.07;7.05;;;;;;;;;;5030763;28;20045;-79
2023/10/19 03:11:13;;;;;;;11.35;8.10;;;;;;;;;;5028507;28;20060;-79
2023/10/19 03:13:40;;;;;;;13.38;8.60;;;;;;;;;;5013471;28;20042;-80
2023/10/19 03:16:10;;;;;;;14.73;9.98;;;;;;;;;;5044778;28;20025;-80
2023/10/19 03:18:35;;;;;;;14.38;9.48;;;;;;;;;;5025095;28;20038;-80
2023/10/19 03:21:02;;;;;;;15.45;10.02;;;;;;;;;;5027055;28;20095;-80
2023/10/19 03:23:28;;;;;;;15.93;10.23;;;;;;;;;;5035808;28;20045;-79
2023/10/19 03:26:18;;;;;;;13.73;9.52;;;;;;;;;;5026930;28;20029;-79
2023/10/19 03:28:40;;;;;;;13.00;9.13;;;;;;;;;;5030574;28;20030;-80
2023/10/19 03:31:07;;;;;;;14.80;9.35;;;;;;;;;;5036176;28;20041;-80
2023/10/19 03:33:36;;;;;;;16.20;9.52;;;;;;;;;;5032461;28;20606;-81
2023/10/19 03:36:04;;;;;;;13.77;9.70;;;;;;;;;;5027782;28;20057;-80
2023/10/19 03:38:34;;;;;;;13.98;9.02;;;;;;;;;;5033733;28;20037;-80
2023/10/19 03:41:06;;;;;;;14.85;9.45;;;;;;;;;;5037818;28;20026;-81
2023/10/19 03:43:32;;;;;;;14.27;8.63;;;;;;;;;;5037804;28;20029;-81
2023/10/19 03:45:59;;;;;;;14.45;8.68;;;;;;;;;;5034830;28;20040;-80
2023/10/19 03:48:34;;;;;;;13.15;8.52;;;;;;;;;;5035757;28;20041;-81
2023/10/19 03:51:02;;;;;;;13.05;8.35;;;;;;;;;;5019353;28;20459;-80
2023/10/19 03:53:28;;;;;;;10.32;7.72;;;;;;;;;;5035225;28;20054;-80
2023/10/19 03:55:54;;;;;;;16.02;8.50;;;;;;;;;;5030675;28;20098;-80
2023/10/19 03:58:20;;;;;;;12.23;8.65;;;;;;;;;;5025819;28;20065;-79
2023/10/19 04:00:49;;;;;;;12.30;8.25;;;;;;;;;;5020294;28;20041;-80
2023/10/19 04:03:17;;;;;;;12.75;8.75;;;;;;;;;;5034285;28;20037;-80
2023/10/19 04:05:46;;;;;;;13.90;9.00;;;;;;;;;;5032347;28;20102;-80
2023/10/19 04:08:14;;;;;;;13.38;9.10;;;;;;;;;;5022685;28;20045;-80
2023/10/19 04:11:08;;;;;;;14.43;8.77;;;;;;;;;;5023407;28;20030;-81
2023/10/19 04:13:35;;;;;;;11.57;8.65;;;;;;;;;;5035420;28;20053;-81
2023/10/19 04:16:01;;;;;;;11.75;7.85;;;;;;;;;;5035750;28;20040;-80
2023/10/19 04:18:27;;;;;;;12.30;8.38;;;;;;;;;;5028114;28;20033;-81
2023/10/19 04:23:18;;;;;;;10.23;7.57;;;;;;;;;;5023213;28;20032;-80
2023/10/19 04:25:46;;;;;;;10.60;7.30;;;;;;;;;;5034058;28;20515;-80
2023/10/19 04:28:13;;;;;;;11.45;7.10;;;;;;;;;;5029239;28;20025;-79
2023/10/19 04:30:39;;;;;;;12.52;7.60;;;;;;;;;;5033554;28;20395;-81
2023/10/19 04:33:09;;;;;;;10.48;7.47;;;;;;;;;;5019200;28;20042;-81
2023/10/19 04:35:38;;;;;;;11.07;6.85;;;;;;;;;;5033627;28;20057;-81
2023/10/19 04:38:06;;;;;;;11.63;7.68;;;;;;;;;;5012573;28;20033;-80
2023/10/19 04:40:32;;;;;;;14.80;7.43;;;;;;;;;;5023123;28;20042;-81
2023/10/19 04:42:57;;;;;;;12.25;7.40;;;;;;;;;;5019362;28;20128;-80
2023/10/19 04:45:23;;;;;;;10.45;7.43;;;;;;;;;;5037173;28;20040;-80
2023/10/19 04:47:52;;;;;;;11.30;6.95;;;;;;;;;;5029707;28;20042;-80
2023/10/19 04:50:18;;;;;;;11.68;6.80;;;;;;;;;;5024627;28;20034;-80
2023/10/19 04:52:43;;;;;;;11.25;7.07;;;;;;;;;;5020056;28;20040;-80
2023/10/19 04:55:08;;;;;;;10.32;6.75;;;;;;;;;;5024704;28;20487;-80
2023/10/19 04:57:34;;;;;;;10.73;7.20;;;;;;;;;;5031705;28;20043;-80
2023/10/19 05:00:00;;;;;;;9.13;6.78;;;;;;;;;;5026356;28;20048;-79
2023/10/19 05:02:25;;;;;;;10.77;6.85;;;;;;;;;;5032089;28;20034;-80
2023/10/19 05:04:51;;;;;;;9.75;6.57;;;;;;;;;;5031550;28;20038;-80
2023/10/19 05:07:16;;;;;;;8.85;6.07;;;;;;;;;;5019004;28;20065;-77
2023/10/19 05:09:43;;;;;;;9.68;5.63;;;;;;;;;;5033797;28;20037;-81
2023/10/19 05:12:09;;;;;;;9.57;5.93;;;;;;;;;;5028292;28;20045;-81
2023/10/19 05:14:35;;;;;;;7.88;5.28;;;;;;;;;;5034303;28;20037;-80
2023/10/19 05:17:04;;;;;;;8.05;5.10;;;;;;;;;;5035812;28;20092;-81
2023/10/19 05:19:33;;;;;;;9.43;5.50;;;;;;;;;;5030543;28;20103;-81
2023/10/19 05:22:00;;;;;;;7.72;5.07;;;;;;;;;;5027378;28;20041;-81
2023/10/19 05:24:27;;;;;;;10.85;5.35;;;;;;;;;;5032465;28;20060;-81
2023/10/19 05:26:53;;;;;;;8.30;5.20;;;;;;;;;;5034195;28;20044;-81
2023/10/19 05:29:19;;;;;;;7.35;5.43;;;;;;;;;;5032661;28;20113;-80
2023/10/19 05:31:45;;;;;;;8.43;6.00;;;;;;;;;;5026399;28;20089;-81
2023/10/19 05:34:10;;;;;;;6.90;4.82;;;;;;;;;;5020895;28;20060;-80
2023/10/19 05:36:36;;;;;;;10.40;5.60;;;;;;;;;;5034649;28;20494;-81
2023/10/19 05:39:03;;;;;;;7.97;4.82;;;;;;;;;;5033098;28;20037;-81
2023/10/19 05:41:31;;;;;;;8.98;4.63;;;;;;;;;;5028065;28;20037;-81
2023/10/19 05:43:57;;;;;;;6.53;4.57;;;;;;;;;;5028771;28;20097;-80
2023/10/19 05:46:24;;;;;;;7.47;3.97;;;;;;;;;;5015256;28;20053;-81
2023/10/19 05:48:51;;;;;;;6.38;4.38;;;;;;;;;;5035420;28;20463;-80
2023/10/19 05:51:17;;;;;;;6.00;4.30;;;;;;;;;;5030610;28;20042;-80
2023/10/19 05:53:44;;;;;;;7.57;3.95;;;;;;;;;;5031542;28;20030;-81
2023/10/19 05:56:11;;;;;;;5.78;3.90;;;;;;;;;;5017239;28;20043;-80
2023/10/19 05:58:36;;;;;;;5.25;3.72;;;;;;;;;;5024494;28;20048;-80
2023/10/19 06:01:02;;;;;;;7.93;4.53;;;;;;;;;;5028318;28;20038;-80
2023/10/19 06:03:28;;;;;;;6.88;4.55;;;;;;;;;;5024624;28;20041;-80
2023/10/19 06:05:56;;;;;;;7.53;5.05;;;;;;;;;;5019659;28;20123;-81
2023/10/19 06:08:25;;;;;;;6.40;4.40;;;;;;;;;;5021747;28;20041;-80
2023/10/19 06:10:54;;;;;;;9.38;4.57;;;;;;;;;;5031621;28;20508;-81
2023/10/19 06:13:20;;;;;;;9.63;4.55;;;;;;;;;;5031831;28;20051;-80
2023/10/19 06:15:45;;;;;;;10.00;5.05;;;;;;;;;;5019551;28;20033;-81
2023/10/19 06:18:11;;;;;;;10.95;4.95;;;;;;;;;;5019365;28;20045;-79
2023/10/19 06:20:38;;;;;;;8.60;5.18;;;;;;;;;;5030522;28;20047;-81
2023/10/19 06:23:07;;;;;;;8.43;5.25;;;;;;;;;;5028699;28;20041;-80
2023/10/19 06:25:36;;;;;;;9.05;5.80;;;;;;;;;;5029150;28;20137;-81
2023/10/19 06:28:02;;;;;;;7.80;5.10;;;;;;;;;;5016259;28;20716;-81
2023/10/19 06:30:27;;;;;;;10.35;5.70;;;;;;;;;;5030304;28;20045;-80
2023/10/19 06:32:55;;;;;;;8.63;6.13;;;;;;;;;;5026557;28;20040;-81
2023/10/19 06:35:23;;;;;;;10.57;6.32;;;;;;;;;;5023366;28;20067;-80
2023/10/19 06:37:48;;;;;;;7.57;5.38;;;;;;;;;;5018007;28;20029;-80
2023/10/19 06:40:16;;;;;;;9.88;5.97;;;;;;;;;;5025616;28;20402;-81
2023/10/19 06:42:45;;;;;;;10.10;5.45;;;;;;;;;;5031213;28;20041;-79
2023/10/19 06:45:14;;;;;;;9.27;5.72;;;;;;;;;;5024391;28;20033;-80
2023/10/19 06:47:44;;;;;;;7.30;5.25;;;;;;;;;;5017730;28;20025;-81
2023/10/19 06:50:11;;;;;;;7.97;5.00;;;;;;;;;;5017907;28;20037;-80
2023/10/19 06:52:38;;;;;;;10.32;6.57;;;;;;;;;;5028669;28;20034;-80
2023/10/19 06:55:04;;;;;;;9.55;6.90;;;;;;;;;;5025520;28;20573;-80
2023/10/19 06:57:32;;;;;;;10.65;6.45;;;;;;;;;;5019342;28;20048;-79
2023/10/19 06:59:59;;;;;;;8.55;5.30;;;;;;;;;;5019559;28;20476;-80
2023/10/19 07:02:26;;;;;;;9.05;5.32;;;;;;;;;;5031613;28;20033;-78
2023/10/19 07:04:52;;;;;;;7.68;5.28;;;;;;;;;;5026276;28;20102;-79
2023/10/19 07:07:18;;;;;;;9.77;6.78;;;;;;;;;;5020816;28;20495;-80
2023/10/19 07:09:43;;;;;;;14.40;6.20;;;;;;;;;;5017276;28;20113;-81
2023/10/19 07:12:09;;;;;;;9.75;5.97;;;;;;;;;;5031271;28;20036;-80
2023/10/19 07:14:34;;;;;;;13.50;7.03;;;;;;;;;;5028815;28;20519;-81
2023/10/19 07:17:00;;;;;;;12.90;6.82;;;;;;;;;;5026422;28;20476;-79
2023/10/19 07:19:25;;;;;;;11.52;7.20;;;;;;;;;;5030560;28;20041;-82
2023/10/19 07:21:57;;;;;;;11.70;7.00;;;;;;;;;;5032231;28;20044;-79
2023/10/19 07:24:26;;;;;;;10.95;7.22;;;;;;;;;;5032557;28;20113;-80
2023/10/19 07:27:04;;;;;;;13.65;7.53;;;;;;;;;;5021464;28;20446;-81
2023/10/19 07:29:30;;;;;;;10.07;6.78;;;;;;;;;;5033478;28;20573;-81
2023/10/19 07:31:58;;;;;;;11.10;7.35;;;;;;;;;;5035490;28;20479;-81
2023/10/19 07:34:27;;;;;;;11.85;7.22;;;;;;;;;;5039157;28;20033;-82
2023/10/19 07:36:54;;;;;;;10.35;6.45;;;;;;;;;;5038816;28;20102;-80
2023/10/19 07:39:20;;;;;;;8.80;6.32;;;;;;;;;;5032138;28;20048;-81
2023/10/19 07:41:46;;;;;;;9.38;6.15;;;;;;;;;;5026345;28;20057;-81
2023/10/19 07:44:12;;;;;;;7.72;5.75;;;;;;;;;;5037862;28;20065;-81
2023/10/19 07:46:38;;;;;;;7.72;5.72;;;;;;;;;;5038302;28;20038;-82
2023/10/19 07:49:03;;;;;;;8.52;5.43;;;;;;;;;;5038331;28;20064;-82
2023/10/19 07:51:30;;;;;;;8.52;5.50;;;;;;;;;;5025148;28;20045;-84
2023/10/19 07:53:56;;;;;;;11.85;5.70;;;;;;;;;;5024627;28;20041;-82
2023/10/19 07:56:23;;;;;;;8.73;6.70;;;;;;;;;;5008591;28;20038;-83
2023/10/19 07:58:50;;;;;;;8.38;5.72;;;;;;;;;;5022450;28;20037;-83
2023/10/19 08:01:15;;;;;;;8.68;5.90;;;;;;;;;;5029188;28;20033;-82
2023/10/19 08:03:41;;;;;;;8.13;5.43;;;;;;;;;;5034556;28;20549;-83
2023/10/19 08:06:06;;;;;;;9.35;6.72;;;;;;;;;;5026654;28;20041;-83
2023/10/19 08:08:35;;;;;;;10.07;6.78;;;;;;;;;;5027433;28;20038;-84
2023/10/19 08:11:00;;;;;;;10.32;6.75;;;;;;;;;;5020081;28;20467;-84
2023/10/19 08:13:27;;;;;;;10.27;7.18;;;;;;;;;;5020897;28;20037;-83
2023/10/19 08:15:53;;;;;;;8.60;6.80;;;;;;;;;;5031708;28;20038;-82
2023/10/19 08:18:18;;;;;;;9.77;5.47;;;;;;;;;;5033294;28;20038;-83
2023/10/19 08:20:49;;;;;;;13.48;6.80;;;;;;;;;;5023119;28;20029;-83
2023/10/19 08:23:16;;;;;;;11.85;6.45;;;;;;;;;;5020811;28;20037;-83
2023/10/19 08:25:44;;;;;;;10.80;6.60;;;;;;;;;;5021403;28;20037;-84
2023/10/19 08:28:10;;;;;;;9.30;6.10;;;;;;;;;;5032319;28;20044;-83
2023/10/19 08:30:37;;;;;;;8.52;6.07;;;;;;;;;;5028283;28;20041;-84
2023/10/19 08:33:03;;;;;;;7.72;5.50;;;;;;;;;;5032907;28;20041;-84
2023/10/19 08:35:30;;;;;;;11.75;5.90;;;;;;;;;;5032566;28;20399;-82
2023/10/19 08:37:59;;;;;;;7.85;5.63;;;;;;;;;;5027913;28;20034;-84
2023/10/19 08:40:29;;;;;;;9.27;5.10;;;;;;;;;;5030741;28;20598;-84
2023/10/19 08:42:55;;;;;;;9.88;5.53;;;;;;;;;;5028696;28;20041;-83
2023/10/19 08:45:23;;;;;;;6.45;4.72;;;;;;;;;;5031363;28;20048;-84
2023/10/19 08:47:56;;;;;;;7.68;5.00;;;;;;;;;;5011127;28;20038;-83
2023/10/19 08:50:24;;;;;;;8.50;5.10;;;;;;;;;;5025211;28;20029;-83
2023/10/19 08:52:53;;;;;;;8.48;6.00;;;;;;;;;;5020430;28;20296;-84
2023/10/19 08:55:19;;;;;;;9.23;5.47;;;;;;;;;;5030261;28;20423;-83
2023/10/19 08:57:48;;;;;;;6.82;5.00;;;;;;;;;;5033848;28;20037;-83
2023/10/19 09:00:17;;;;;;;6.57;4.53;;;;;;;;;;5008419;28;20076;-84
2023/10/19 09:02:43;;;;;;;8.52;4.25;;;;;;;;;;5021234;28;20017;-84
2023/10/19 09:05:19;;;;;;;8.40;3.85;;;;;;;;;;5024717;28;20038;-84
2023/10/19 09:07:54;;;;;;;7.68;4.00;;;;;;;;;;5031802;28;20491;-85
2023/10/19 09:10:36;;;;;;;7.40;3.65;;;;;;;;;;5026657;28;20034;-83
2023/10/19 09:13:09;;;;;;;5.55;3.78;;;;;;;;;;5026500;28;20033;-82
2023/10/19 09:15:38;;;;;;;8.85;3.45;;;;;;;;;;5037679;28;20380;-85
2023/10/19 09:18:24;;;;;;;5.22;3.90;;;;;;;;;;5031881;28;20112;-88
2023/10/19 09:20:52;;;;;;;9.88;6.53;;;;;;;;;;5015699;28;20141;-85
2023/10/19 09:23:28;;;;;;;6.38;4.55;;;;;;;;;;5021806;28;20033;-85
2023/10/19 09:25:56;;;;;;;6.60;3.60;;;;;;;;;;5025394;28;20034;-85
2023/10/19 09:28:23;;;;;;;5.25;3.42;;;;;;;;;;5032819;28;20136;-85
2023/10/19 09:30:50;;;;;;;7.18;3.35;;;;;;;;;;5028665;28;20022;-84
2023/10/19 09:33:17;;;;;;;4.47;3.35;;;;;;;;;;5023345;28;20033;-83
2023/10/19 09:35:48;;;;;;;5.65;3.10;;;;;;;;;;5018948;28;20026;-82
2023/10/19 09:38:21;;;;;;;6.18;3.13;;;;;;;;;;5033795;28;20514;-83
2023/10/19 09:40:52;;;;;;;4.55;3.00;;;;;;;;;;5030201;28;20042;-84
2023/10/19 09:43:36;;;;;;;5.78;3.10;;;;;;;;;;5025333;28;20037;-86
2023/10/19 09:46:11;;;;;;;5.47;3.20;;;;;;;;;;5026949;28;20029;-85
2023/10/19 09:48:41;;;;;;;5.45;3.00;;;;;;;;;;5032862;28;20053;-84
2023/10/19 09:51:09;;;;;;;5.32;3.35;;;;;;;;;;5024238;28;20044;-84
2023/10/19 09:53:35;;;;;;;7.18;3.38;;;;;;;;;;5027258;28;20040;-84
2023/10/19 09:56:06;;;;;;;6.53;3.10;;;;;;;;;;5045085;28;20057;-85
2023/10/19 09:58:38;;;;;;;6.45;3.40;;;;;;;;;;5037510;28;20033;-84
2023/10/19 10:01:07;;;;;;;7.35;3.10;;;;;;;;;;5042583;28;20128;-85
2023/10/19 10:03:52;;;;;;;6.20;3.30;;;;;;;;;;5021764;28;20526;-84
2023/10/19 10:06:50;;;;;;;4.90;3.35;;;;;;;;;;5018570;28;20400;-85
2023/10/19 10:09:21;;;;;;;4.93;3.50;;;;;;;;;;5016622;28;20034;-84
2023/10/19 10:11:52;;;;;;;5.82;3.25;;;;;;;;;;5016596;28;20431;-83
2023/10/19 10:14:31;;;;;;;6.15;3.78;;;;;;;;;;5023023;28;20041;-85
2023/10/19 10:17:04;;;;;;;7.70;3.95;;;;;;;;;;5028617;28;20033;-85
2023/10/19 10:19:30;;;;;;;6.20;3.10;;;;;;;;;;5018973;28;20045;-85
2023/10/19 10:22:11;;;;;;;6.82;3.40;;;;;;;;;;5030355;28;20033;-85
2023/10/19 10:24:43;;;;;;;5.68;3.33;;;;;;;;;;5027442;28;20041;-80
2023/10/19 10:27:10;;;;;;;3.67;2.35;;;;;;;;;;5034842;28;20116;-80
2023/10/19 10:29:35;;;;;;;3.65;2.20;;;;;;;;;;5025248;28;20026;-81
2023/10/19 10:32:01;;;;;;;4.05;2.20;;;;;;;;;;5036217;28;20039;-81
2023/10/19 10:34:33;;;;;;;4.65;2.13;;;;;;;;;;5030600;28;20041;-80
2023/10/19 10:37:16;;;;;;;3.63;2.15;;;;;;;;;;5031193;28;20200;-81
2023/10/19 10:39:44;;;;;;;4.10;1.95;;;;;;;;;;5035470;28;20063;-81
2023/10/19 10:42:10;;;;;;;4.93;1.90;;;;;;;;;;5019978;28;20082;-81
2023/10/19 10:44:46;;;;;;;3.08;1.65;;;;;;;;;;5025442;28;20084;-80
2023/10/19 10:47:16;;;;;;;4.88;1.90;;;;;;;;;;5032051;28;20513;-81
2023/10/19 10:49:55;;;;;;;3.05;1.80;;;;;;;;;;5021081;28;20041;-81
2023/10/19 10:52:35;;;;;;;3.58;2.08;;;;;;;;;;5032960;28;20025;-82
2023/10/19 10:55:10;;;;;;;4.18;2.30;;;;;;;;;;5026131;28;20089;-79
2023/10/19 10:57:37;;;;;;;5.43;2.15;;;;;;;;;;5026885;28;20714;-82
2023/10/19 11:00:08;;;;;;;4.15;2.20;;;;;;;;;;5044825;28;20112;-81
2023/10/19 11:02:42;;;;;;;2.97;2.20;;;;;;;;;;5024355;28;20038;-81
2023/10/19 11:05:11;;;;;;;4.47;2.30;;;;;;;;;;5012806;28;20041;-81
2023/10/19 11:07:38;;;;;;;4.57;2.50;;;;;;;;;;5035625;28;20104;-83
2023/10/19 11:10:03;;;;;;;4.22;2.10;;;;;;;;;;5033370;28;20146;-82
2023/10/19 11:12:29;;;;;;;4.70;2.10;;;;;;;;;;5037303;28;20045;-82
2023/10/19 11:14:59;;;;;;;5.05;2.10;;;;;;;;;;5035271;28;20029;-82
2023/10/19 11:17:30;;;;;;;7.43;2.28;;;;;;;;;;5027036;28;20041;-83
2023/10/19 11:19:57;;;;;;;4.78;2.10;;;;;;;;;;5021611;28;20049;-81
2023/10/19 11:22:26;;;;;;;6.15;2.30;;;;;;;;;;5020152;28;20053;-82
2023/10/19 11:24:56;;;;;;;5.90;2.28;;;;;;;;;;5028839;28;20026;-79
2023/10/19 11:27:28;;;;;;;7.57;2.30;;;;;;;;;;5028814;28;20041;-82
2023/10/19 11:30:07;;;;;;;6.93;2.47;;;;;;;;;;5031628;28;20064;-84
2023/10/19 11:32:38;;;;;;;4.72;2.45;;;;;;;;;;5037625;28;20052;-82
2023/10/19 11:35:04;;;;;;;6.45;2.47;;;;;;;;;;5032738;28;20041;-79
2023/10/19 11:37:29;;;;;;;5.32;2.10;;;;;;;;;;5034412;28;20025;-84
2023/10/19 11:39:55;;;;;;;4.60;2.42;;;;;;;;;;5030686;28;20407;-81
2023/10/19 11:42:20;;;;;;;5.82;2.60;;;;;;;;;;5019687;28;20045;-81
2023/10/19 11:44:46;;;;;;;6.07;2.60;;;;;;;;;;5039189;28;20029;-82
2023/10/19 11:47:13;;;;;;;4.65;2.38;;;;;;;;;;5039655;28;20104;-80
2023/10/19 11:49:39;;;;;;;4.22;2.67;;;;;;;;;;5025643;28;20070;-82
2023/10/19 11:52:08;;;;;;;5.38;2.70;;;;;;;;;;5019573;28;20033;-82
2023/10/19 11:54:34;;;;;;;6.03;2.55;;;;;;;;;;5040107;28;20458;-82
2023/10/19 11:56:59;;;;;;;5.45;2.60;;;;;;;;;;5034336;28;20033;-82
2023/10/19 11:59:26;;;;;;;4.30;2.45;;;;;;;;;;5029361;28;20066;-84
2023/10/19 12:01:52;;;;;;;3.63;2.45;;;;;;;;;;5038353;28;20057;-84
2023/10/19 12:04:17;;;;;;;4.30;2.40;;;;;;;;;;5026512;28;20041;-81
2023/10/19 12:06:45;;;;;;;3.95;2.13;;;;;;;;;;5035077;28;20045;-82
2023/10/19 12:09:14;;;;;;;4.13;2.20;;;;;;;;;;5030078;28;20492;-83
2023/10/19 12:11:44;;;;;;;7.65;2.58;;;;;;;;;;5038330;28;20129;-82
2023/10/19 12:14:14;;;;;;;5.60;2.00;;;;;;;;;;5029491;28;20033;-82
2023/10/19 12:16:40;;;;;;;7.18;2.03;;;;;;;;;;5020127;28;20084;-81
2023/10/19 12:19:07;;;;;;;5.20;2.10;;;;;;;;;;5032291;28;20052;-81
2023/10/19 12:21:37;;;;;;;6.63;2.10;;;;;;;;;;5028101;28;20494;-81
2023/10/19 12:24:04;;;;;;;5.70;1.90;;;;;;;;;;5037331;28;20052;-80
2023/10/19 12:26:30;;;;;;;4.32;2.15;;;;;;;;;;5037275;28;20141;-82
2023/10/19 12:28:56;;;;;;;8.15;2.17;;;;;;;;;;5027022;28;20172;-80
2023/10/19 12:31:23;;;;;;;7.20;2.25;;;;;;;;;;5029917;28;20045;-81
2023/10/19 12:33:48;;;;;;;7.35;2.55;;;;;;;;;;5037599;28;20042;-80
2023/10/19 12:36:33;;;;;;;5.20;2.55;;;;;;;;;;5033885;28;20040;-80
2023/10/19 12:38:58;;;;;;;8.93;2.35;;;;;;;;;;5034689;28;20045;-81
2023/10/19 12:41:24;;;;;;;5.55;2.30;;;;;;;;;;5033294;28;20037;-80
2023/10/19 12:44:08;;;;;;;7.07;2.10;;;;;;;;;;5022946;28;20046;-80
2023/10/19 12:46:36;;;;;;;4.28;1.90;;;;;;;;;;5037998;28;20120;-80
2023/10/19 12:49:08;;;;;;;7.25;2.05;;;;;;;;;;5030455;28;20052;-81
2023/10/19 12:51:34;;;;;;;4.75;2.20;;;;;;;;;;5026962;28;20045;-81
2023/10/19 12:54:03;;;;;;;4.30;2.30;;;;;;;;;;5025703;28;20052;-81
2023/10/19 12:56:28;;;;;;;4.97;1.92;;;;;;;;;;5028474;28;20046;-82
2023/10/19 12:58:54;;;;;;;6.82;2.63;;;;;;;;;;5039490;28;20042;-82
2023/10/19 13:01:21;;;;;;;5.45;2.30;;;;;;;;;;5029022;28;20095;-80
2023/10/19 13:03:47;;;;;;;4.40;2.20;;;;;;;;;;5025394;28;20076;-81
2023/10/19 13:06:16;;;;;;;6.18;2.30;;;;;;;;;;5033142;28;20518;-81
2023/10/19 13:08:42;;;;;;;7.72;2.17;;;;;;;;;;5035214;28;20087;-80
2023/10/19 13:11:09;;;;;;;5.40;2.33;;;;;;;;;;5029703;28;20046;-81
2023/10/19 13:13:39;;;;;;;5.40;2.20;;;;;;;;;;5024143;28;20041;-82
2023/10/19 13:16:05;;;;;;;4.38;2.42;;;;;;;;;;5019787;28;20029;-81
2023/10/19 13:18:33;;;;;;;6.85;2.10;;;;;;;;;;5034442;28;20041;-81
2023/10/19 13:21:04;;;;;;;6.35;2.13;;;;;;;;;;5029762;28;20063;-82
2023/10/19 13:23:32;;;;;;;5.00;1.80;;;;;;;;;;5032803;28;20044;-81
2023/10/19 13:26:08;;;;;;;5.90;1.77;;;;;;;;;;5020554;28;20048;-82
2023/10/19 13:28:36;;;;;;;5.20;1.67;;;;;;;;;;5016220;28;20038;-82
2023/10/19 13:31:03;;;;;;;3.97;1.73;;;;;;;;;;5021075;28;20038;-82
2023/10/19 13:33:29;;;;;;;4.50;1.65;;;;;;;;;;5025470;28;20053;-81
2023/10/19 13:35:54;;;;;;;5.65;1.83;;;;;;;;;;5033571;28;20079;-81
2023/10/19 13:38:20;;;;;;;6.72;1.90;;;;;;;;;;5033673;28;20044;-83
2023/10/19 13:40:45;;;;;;;6.18;2.25;;;;;;;;;;5031721;28;20196;-83
2023/10/19 13:43:16;;;;;;;7.72;1.60;;;;;;;;;;5024665;28;20044;-81
2023/10/19 13:45:45;;;;;;;5.03;1.80;;;;;;;;;;5020066;28;20049;-81
2023/10/19 13:48:12;;;;;;;4.60;1.70;;;;;;;;;;5032097;28;20037;-82
2023/10/19 13:50:48;;;;;;;5.72;1.80;;;;;;;;;;5029881;28;20041;-81
2023/10/19 13:53:15;;;;;;;9.80;2.00;;;;;;;;;;5030622;28;20091;-81
2023/10/19 13:55:41;;;;;;;8.02;1.88;;;;;;;;;;5019970;28;20043;-81
2023/10/19 13:58:07;;;;;;;7.05;1.73;;;;;;;;;;5015670;28;20696;-82
2023/10/19 14:00:40;;;;;;;6.63;1.70;;;;;;;;;;5029853;28;20045;-80
2023/10/19 14:03:07;;;;;;;7.22;1.95;;;;;;;;;;5020868;28;20037;-81
2023/10/19 14:05:40;;;;;;;7.65;2.10;;;;;;;;;;5025895;28;20025;-81
2023/10/19 14:08:06;;;;;;;5.53;1.83;;;;;;;;;;5029755;28;20149;-82
2023/10/19 14:10:33;;;;;;;4.50;1.92;;;;;;;;;;5030591;28;20029;-81
2023/10/19 14:12:59;;;;;;;5.40;1.90;;;;;;;;;;5026466;28;20091;-82
2023/10/19 14:15:33;;;;;;;8.02;2.55;;;;;;;;;;5021292;28;20030;-81
2023/10/19 14:17:59;;;;;;;17.15;9.88;;;;;;;;;;5018518;28;20041;-81
2023/10/19 14:20:25;;;;;;;14.85;10.05;;;;;;;;;;5023536;28;20642;-80
2023/10/19 14:22:53;;;;;;;8.93;5.25;;;;;;;;;;5030808;28;20098;-81
2023/10/19 14:25:20;;;;;;;6.97;3.13;;;;;;;;;;5023843;28;20064;-82
2023/10/19 14:27:50;;;;;;;4.63;2.38;;;;;;;;;;5019474;28;20054;-82
2023/10/19 14:30:23;;;;;;;5.13;2.15;;;;;;;;;;5019719;28;20067;-81
2023/10/19 14:32:48;;;;;;;6.40;1.90;;;;;;;;;;5024520;28;20034;-82
2023/10/19 14:35:19;;;;;;;8.32;1.88;;;;;;;;;;5027823;28;20122;-81
2023/10/19 14:37:47;;;;;;;5.50;3.25;;;;;;;;;;5019321;28;20087;-82
2023/10/19 14:40:16;;;;;;;6.40;2.20;;;;;;;;;;5025779;28;20095;-81
2023/10/19 14:42:42;;;;;;;6.63;2.33;;;;;;;;;;5030546;28;20045;-81
2023/10/19 14:45:09;;;;;;;5.78;2.00;;;;;;;;;;5025340;28;20109;-82
2023/10/19 14:47:36;;;;;;;6.68;1.98;;;;;;;;;;5021266;28;20038;-81
2023/10/19 14:50:02;;;;;;;3.25;1.90;;;;;;;;;;5016768;28;20408;-81
2023/10/19 14:52:28;;;;;;;8.30;1.88;;;;;;;;;;5025711;28;20037;-82
2023/10/19 14:54:53;;;;;;;7.95;1.80;;;;;;;;;;5025838;28;20442;-81
2023/10/19 14:57:19;;;;;;;4.63;1.80;;;;;;;;;;5022358;28;20444;-82
2023/10/19 14:59:45;;;;;;;5.60;2.00;;;;;;;;;;5018132;28;20038;-79
2023/10/19 15:02:12;;;;;;;4.00;1.90;;;;;;;;;;5031307;28;20048;-81
2023/10/19 15:04:40;;;;;;;5.15;2.00;;;;;;;;;;5026604;28;20398;-81
2023/10/19 15:07:06;;;;;;;4.43;2.15;;;;;;;;;;5023369;28;20531;-80
2023/10/19 15:09:31;;;;;;;5.53;1.90;;;;;;;;;;5030407;28;20041;-82
2023/10/19 15:11:58;;;;;;;5.18;2.50;;;;;;;;;;5032641;28;20041;-82